Back to top

Cheyenne, WY weather

Cheyenne Regional/Jerry Olson Field, Cheyenne, WY: 11/13/2019 18:53
Visibility10 statute mileslots of clouds
View 7-Day Forecast
Area Summary
Sky/CloudsFew at 2900ft, Scattered at 7000ft, Solid Overcast at 9000ft
Weather [last 24 hours]None
Pressure30.13 in.Hg (1020 hPa)
Dew Point26.1 °F (-3.3 °C)
Relative Humidity69.4 %
Temperature35.1 °F (1.7 °C)red thermometer
Wind Chill30.1 °F (-1.05 °C)
Reading TimeMinimum to Maximum Temperature
6-hr ending 11/13@16:5337 °F to 50 °F (2.8 °C to 10 °C)
6-hr ending 11/13@10:5343 °F to 48.9 °F (6.1 °C to 9.4 °C)
6-hr ending 11/13@04:5346.9 °F to 51.1 °F (8.3 °C to 10.6 °C)
6-hr ending 11/12@22:5346 °F to 50 °F (7.8 °C to 10 °C)
24-hr ending 11/12@23:539 °F to 57 °F (-12.8 °C to 13.9 °C)
Wind5.75 MPH (5 KT) green arrow pointing 337.5 degrees
Wind FromNorth/Northwest (340 Degrees)
Rolling 24-hr Peak Wind48.3 MPH (42 KT) on 11/12@21:27
Rolling 24-hr Peak Wind FromWest/Northwest (290 Degrees)
Twilight Begins06:15Sunshine Yesterday
Sunrise06:44N/A
Sunset16:43
Twilight Ends17:12
METARKCYS 140153Z 34005KT 10SM FEW029 SCT070 OVC090 02/M03 A3013 RMK AO2 SLP199 T00171033
Tags: